createdAt,value
2018-02-12T00:00:12.462Z,89.00
2018-02-12T00:02:38.215Z,88.79
2018-02-12T00:05:03.983Z,89.09
2018-02-12T00:07:29.729Z,89.01
2018-02-12T00:09:55.499Z,89.33
2018-02-12T00:12:21.307Z,89.27
2018-02-12T00:14:47.071Z,89.28
2018-02-12T00:17:12.840Z,89.21
2018-02-12T00:19:38.603Z,89.36
2018-02-12T00:22:04.354Z,89.64
2018-02-12T00:24:30.111Z,89.61
2018-02-12T00:26:55.870Z,89.78
2018-02-12T00:29:21.641Z,89.75
2018-02-12T00:31:47.390Z,89.47
2018-02-12T00:34:13.146Z,89.87
2018-02-12T00:36:38.903Z,89.94
2018-02-12T00:39:04.696Z,89.93
2018-02-12T00:41:30.464Z,89.54
2018-02-12T00:43:56.227Z,89.17
2018-02-12T00:46:21.991Z,89.24
2018-02-12T00:48:47.742Z,89.38
2018-02-12T00:51:13.505Z,89.59
2018-02-12T00:53:39.270Z,89.40
2018-02-12T00:56:05.058Z,89.66
2018-02-12T00:58:30.810Z,89.82
2018-02-12T01:00:56.650Z,89.75
2018-02-12T01:03:22.398Z,90.06
2018-02-12T01:05:48.171Z,89.79
2018-02-12T01:08:13.942Z,89.83
2018-02-12T01:10:39.706Z,89.90
2018-02-12T01:13:05.478Z,90.01
2018-02-12T01:15:31.250Z,90.01
2018-02-12T01:17:57.008Z,90.24
2018-02-12T01:20:22.768Z,90.04
2018-02-12T01:22:48.558Z,90.12
2018-02-12T01:25:14.319Z,89.88
2018-02-12T01:27:40.087Z,89.56
2018-02-12T01:30:05.870Z,89.68
2018-02-12T01:32:31.694Z,89.81
2018-02-12T01:34:57.459Z,90.16
2018-02-12T01:37:23.246Z,89.94
2018-02-12T01:39:48.999Z,90.52
2018-02-12T01:42:14.778Z,90.58
2018-02-12T01:44:40.539Z,90.50
2018-02-12T01:47:06.343Z,90.65
2018-02-12T01:49:32.109Z,90.53
2018-02-12T01:51:57.863Z,90.66
2018-02-12T01:54:23.666Z,90.76
2018-02-12T01:56:49.436Z,90.85
2018-02-12T01:59:15.181Z,91.06
2018-02-12T02:01:40.935Z,91.18
2018-02-12T02:04:06.691Z,91.20
2018-02-12T02:06:32.452Z,91.12
2018-02-12T02:08:58.209Z,91.20
2018-02-12T02:11:23.963Z,90.68
2018-02-12T02:13:49.726Z,90.69
2018-02-12T02:16:15.482Z,90.77
2018-02-12T02:18:41.252Z,90.99
2018-02-12T02:21:07.002Z,91.13
2018-02-12T02:23:32.786Z,91.41
2018-02-12T02:25:58.517Z,91.64
2018-02-12T02:28:24.291Z,91.45
2018-02-12T02:30:50.051Z,91.59
2018-02-12T02:33:15.819Z,91.64
2018-02-12T02:35:41.582Z,91.38
2018-02-12T02:38:07.350Z,91.57
2018-02-12T02:40:33.114Z,91.65
2018-02-12T02:42:58.888Z,91.86
2018-02-12T02:45:24.643Z,91.78
2018-02-12T02:47:50.395Z,91.83
2018-02-12T02:50:16.162Z,91.97
2018-02-12T02:52:41.962Z,91.90
2018-02-12T02:55:07.715Z,92.09
2018-02-12T02:57:33.470Z,92.02
2018-02-12T02:59:59.240Z,91.89
2018-02-12T03:02:25.011Z,91.74
2018-02-12T03:04:50.782Z,91.81
2018-02-12T03:07:16.552Z,91.91
2018-02-12T03:09:42.314Z,91.97
2018-02-12T03:12:08.079Z,91.95
2018-02-12T03:14:33.843Z,91.95
2018-02-12T03:16:59.615Z,91.97
2018-02-12T03:19:25.421Z,92.01
2018-02-12T03:21:51.177Z,92.04
2018-02-12T03:24:16.955Z,91.98
2018-02-12T03:26:42.708Z,91.87
2018-02-12T03:29:08.487Z,91.83
2018-02-12T03:31:34.239Z,91.80
2018-02-12T03:34:00.034Z,91.88
2018-02-12T03:36:25.787Z,91.94
2018-02-12T03:38:51.561Z,92.04
2018-02-12T03:41:17.323Z,92.18
2018-02-12T03:43:43.114Z,91.48
2018-02-12T03:46:09.903Z,91.63
2018-02-12T03:48:35.668Z,91.62
2018-02-12T03:51:01.435Z,91.67
2018-02-12T03:53:27.201Z,91.97
2018-02-12T03:55:52.949Z,91.89
2018-02-12T03:58:18.714Z,91.97
2018-02-12T04:00:44.524Z,91.69
2018-02-12T04:03:10.255Z,91.39
2018-02-12T04:05:36.035Z,91.33
2018-02-12T04:08:01.793Z,91.31
2018-02-12T04:10:27.559Z,91.43
2018-02-12T04:12:53.314Z,91.33
2018-02-12T04:15:19.094Z,91.26
2018-02-12T04:17:44.842Z,91.25
2018-02-12T04:20:10.615Z,91.19
2018-02-12T04:22:36.357Z,91.28
2018-02-12T04:25:02.143Z,91.28
2018-02-12T04:27:27.882Z,91.47
2018-02-12T04:29:53.639Z,91.52
2018-02-12T04:32:19.402Z,91.65
2018-02-12T04:34:45.158Z,91.77
2018-02-12T04:37:10.931Z,91.72
2018-02-12T04:39:36.705Z,91.74
2018-02-12T04:42:02.463Z,91.62
2018-02-12T04:44:28.211Z,91.87
2018-02-12T04:46:53.974Z,91.96
2018-02-12T04:49:19.726Z,91.88
2018-02-12T04:51:45.504Z,91.99
2018-02-12T04:54:11.270Z,91.80
2018-02-12T04:56:37.031Z,91.91
2018-02-12T04:59:02.797Z,91.66
2018-02-12T05:01:28.567Z,91.55
2018-02-12T05:03:54.307Z,91.38
2018-02-12T05:06:20.070Z,91.21
2018-02-12T05:08:45.826Z,90.76
2018-02-12T05:11:11.610Z,90.34
2018-02-12T05:13:37.357Z,90.42
2018-02-12T05:16:03.143Z,90.42
2018-02-12T05:18:28.894Z,90.51
2018-02-12T05:20:54.652Z,90.75
2018-02-12T05:23:20.424Z,91.01
2018-02-12T05:25:46.187Z,91.21
2018-02-12T05:28:11.950Z,91.34
2018-02-12T05:30:37.694Z,91.54
2018-02-12T05:33:03.459Z,91.69
2018-02-12T05:35:29.210Z,91.78
2018-02-12T05:37:55.015Z,91.48
2018-02-12T05:40:20.771Z,91.37
2018-02-12T05:42:46.542Z,90.99
2018-02-12T05:45:12.306Z,90.87
2018-02-12T05:47:38.074Z,90.97
2018-02-12T05:50:03.841Z,90.89
2018-02-12T05:52:29.626Z,90.99
2018-02-12T05:54:55.362Z,90.86
2018-02-12T05:57:21.112Z,90.92
2018-02-12T05:59:46.909Z,90.97
2018-02-12T06:02:12.667Z,91.09
2018-02-12T06:04:38.418Z,91.30
2018-02-12T06:07:04.168Z,91.33
2018-02-12T06:09:29.929Z,91.13
2018-02-12T06:11:55.679Z,92.03
2018-02-12T06:14:21.446Z,93.33
2018-02-12T06:16:47.194Z,94.28
2018-02-12T06:19:12.946Z,94.85
2018-02-12T06:21:38.692Z,95.27
2018-02-12T06:24:04.454Z,95.71
2018-02-12T06:26:30.206Z,95.96
2018-02-12T06:28:56.011Z,96.17
2018-02-12T06:31:21.764Z,96.34
2018-02-12T06:33:47.531Z,96.37
2018-02-12T06:36:13.278Z,96.41
2018-02-12T06:38:39.073Z,96.42
2018-02-12T06:41:04.806Z,96.39
2018-02-12T06:43:30.578Z,96.45
2018-02-12T06:45:56.324Z,96.39
2018-02-12T06:48:22.062Z,96.38
2018-02-12T06:50:47.823Z,96.45
2018-02-12T06:53:13.580Z,96.50
2018-02-12T06:55:39.343Z,96.46
2018-02-12T06:58:05.099Z,96.30
2018-02-12T07:00:30.888Z,96.16
2018-02-12T07:02:56.634Z,96.06
2018-02-12T07:05:22.386Z,96.00
2018-02-12T07:07:48.133Z,96.09
2018-02-12T07:10:13.900Z,96.19
2018-02-12T07:12:39.642Z,96.19
2018-02-12T07:15:05.402Z,96.34
2018-02-12T07:17:31.154Z,96.40
2018-02-12T07:19:56.920Z,96.50
2018-02-12T07:22:22.683Z,96.54
2018-02-12T07:24:48.471Z,96.61
2018-02-12T07:27:14.220Z,96.63
2018-02-12T07:29:39.983Z,96.63
2018-02-12T07:32:05.755Z,96.68
2018-02-12T07:34:31.488Z,96.57
2018-02-12T07:36:57.242Z,96.38
2018-02-12T07:39:23.006Z,96.09
2018-02-12T07:41:48.763Z,95.89
2018-02-12T07:44:14.507Z,95.68
2018-02-12T07:46:40.270Z,95.26
2018-02-12T07:49:06.028Z,95.55
2018-02-12T07:51:31.787Z,95.47
2018-02-12T07:53:57.551Z,95.78
2018-02-12T07:56:23.312Z,95.89
2018-02-12T07:58:49.066Z,96.00
2018-02-12T08:01:14.831Z,96.13
2018-02-12T08:03:40.583Z,96.09
2018-02-12T08:06:06.355Z,95.88
2018-02-12T08:08:32.115Z,96.10
2018-02-12T08:10:57.870Z,96.40
2018-02-12T08:13:23.638Z,96.56
2018-02-12T08:15:49.393Z,96.71
2018-02-12T08:18:15.170Z,96.80
2018-02-12T08:20:40.913Z,96.96
2018-02-12T08:23:06.663Z,97.03
2018-02-12T08:25:32.426Z,97.19
2018-02-12T08:27:58.194Z,97.23
2018-02-12T08:30:23.961Z,97.32
2018-02-12T08:32:49.722Z,97.35
2018-02-12T08:35:15.479Z,97.33
2018-02-12T08:37:41.252Z,97.35
2018-02-12T08:40:07.007Z,97.28
2018-02-12T08:42:32.787Z,97.15
2018-02-12T08:44:58.544Z,97.04
2018-02-12T08:47:24.311Z,97.14
2018-02-12T08:49:50.503Z,97.29
2018-02-12T08:52:16.276Z,97.45
2018-02-12T08:54:42.038Z,97.57
2018-02-12T08:57:07.811Z,97.72
2018-02-12T08:59:33.567Z,97.70
2018-02-12T09:01:59.323Z,97.71
2018-02-12T09:04:25.079Z,97.71
2018-02-12T09:06:50.835Z,97.62
2018-02-12T09:09:16.591Z,97.53
2018-02-12T09:11:42.334Z,97.56
2018-02-12T09:14:08.092Z,97.59
2018-02-12T09:16:33.873Z,97.56
2018-02-12T09:18:59.630Z,97.52
2018-02-12T09:21:25.388Z,97.58
2018-02-12T09:23:51.167Z,97.66
2018-02-12T09:26:16.914Z,97.66
2018-02-12T09:28:42.671Z,97.70
2018-02-12T09:31:08.409Z,97.65
2018-02-12T09:33:34.174Z,97.62
2018-02-12T09:35:59.927Z,97.55
2018-02-12T09:38:25.687Z,97.46
2018-02-12T09:40:51.450Z,97.42
2018-02-12T09:43:17.194Z,97.36
2018-02-12T09:45:42.958Z,97.01
2018-02-12T09:48:08.712Z,96.64
2018-02-12T09:50:34.478Z,96.36
2018-02-12T09:53:00.270Z,96.06
2018-02-12T09:55:26.019Z,96.02
2018-02-12T09:57:51.770Z,95.78
2018-02-12T10:00:17.550Z,95.96
2018-02-12T10:02:43.314Z,95.75
2018-02-12T10:05:09.162Z,95.96
2018-02-12T10:07:34.952Z,95.72
2018-02-12T10:10:00.706Z,95.65
2018-02-12T10:12:26.464Z,95.68
2018-02-12T10:14:52.258Z,95.85
2018-02-12T10:17:18.017Z,95.44
2018-02-12T10:19:43.794Z,95.68
2018-02-12T10:22:09.550Z,95.51
2018-02-12T10:24:35.327Z,95.42
2018-02-12T10:27:01.220Z,95.43
2018-02-12T10:29:26.994Z,95.88
2018-02-12T10:31:52.757Z,95.91
2018-02-12T10:34:18.510Z,95.37
2018-02-12T10:36:44.341Z,95.40
2018-02-12T10:39:10.114Z,95.58
2018-02-12T10:41:35.927Z,95.40
2018-02-12T10:44:01.754Z,95.35
2018-02-12T10:46:27.526Z,95.39
2018-02-12T10:48:53.296Z,95.27
2018-02-12T10:51:19.207Z,95.46
2018-02-12T10:53:44.979Z,94.77
2018-02-12T10:56:10.759Z,94.40
2018-02-12T10:58:36.502Z,94.39
2018-02-12T11:01:02.270Z,94.43
2018-02-12T11:03:28.030Z,94.47
2018-02-12T11:05:53.790Z,94.84
2018-02-12T11:08:19.624Z,94.16
2018-02-12T11:10:45.326Z,94.17
2018-02-12T11:13:11.091Z,94.29
2018-02-12T11:15:36.846Z,93.29
2018-02-12T11:18:02.614Z,92.21
2018-02-12T11:20:28.374Z,91.58
2018-02-12T11:22:54.143Z,91.44
2018-02-12T11:25:19.895Z,90.95
2018-02-12T11:27:45.675Z,90.91
2018-02-12T11:30:11.606Z,90.91
2018-02-12T11:32:37.391Z,90.91
2018-02-12T11:35:03.148Z,90.61
2018-02-12T11:37:28.921Z,91.32
2018-02-12T11:39:54.678Z,90.39
2018-02-12T11:42:20.438Z,90.18
2018-02-12T11:44:46.208Z,90.46
2018-02-12T11:47:11.971Z,90.15
2018-02-12T11:49:37.737Z,90.24
2018-02-12T11:52:03.666Z,91.03
2018-02-12T11:54:29.426Z,90.68
2018-02-12T11:56:55.175Z,90.49
2018-02-12T11:59:20.923Z,90.73
2018-02-12T12:01:46.678Z,90.22
2018-02-12T12:04:12.439Z,90.84
2018-02-12T12:06:38.184Z,90.03
2018-02-12T12:09:04.003Z,88.98
2018-02-12T12:11:29.754Z,89.49
2018-02-12T12:13:55.528Z,89.16
2018-02-12T12:16:21.270Z,89.15
2018-02-12T12:18:47.026Z,89.12
2018-02-12T12:21:12.785Z,88.23
2018-02-12T12:23:38.553Z,87.98
2018-02-12T12:26:04.327Z,88.59
2018-02-12T12:28:30.131Z,88.41
2018-02-12T12:30:55.946Z,89.31
2018-02-12T12:33:21.739Z,86.31
2018-02-12T12:35:47.514Z,87.69
2018-02-12T12:38:13.263Z,86.03
2018-02-12T12:40:39.016Z,84.71
2018-02-12T12:43:04.775Z,83.38
2018-02-12T12:45:30.552Z,83.99
2018-02-12T12:47:56.307Z,83.67
2018-02-12T12:50:22.066Z,84.36
2018-02-12T12:52:47.824Z,84.38
2018-02-12T12:55:13.570Z,83.35
2018-02-12T12:57:39.323Z,84.21
2018-02-12T13:00:05.103Z,84.44
2018-02-12T13:02:30.842Z,83.46
2018-02-12T13:04:56.594Z,84.06
2018-02-12T13:07:22.363Z,84.00
2018-02-12T13:09:48.189Z,82.96
2018-02-12T13:12:13.987Z,84.62
2018-02-12T13:14:39.743Z,84.77
2018-02-12T13:17:05.503Z,83.12
2018-02-12T13:19:31.264Z,83.30
2018-02-12T13:21:57.031Z,83.59
2018-02-12T13:24:22.791Z,82.97
2018-02-12T13:26:48.590Z,83.59
2018-02-12T13:29:14.331Z,83.28
2018-02-12T13:31:40.095Z,84.64
2018-02-12T13:34:05.850Z,82.73
2018-02-12T13:36:31.637Z,82.33
2018-02-12T13:38:57.395Z,81.97
2018-02-12T13:41:23.142Z,81.69
2018-02-12T13:43:48.903Z,81.53
2018-02-12T13:46:14.667Z,81.38
2018-02-12T13:48:40.436Z,81.15
2018-02-12T13:51:06.177Z,81.66
2018-02-12T13:53:31.931Z,82.15
2018-02-12T13:55:57.705Z,81.03
2018-02-12T13:58:23.471Z,81.42
2018-02-12T14:00:49.246Z,82.44
2018-02-12T14:03:15.020Z,82.83
2018-02-12T14:05:40.795Z,81.90
2018-02-12T14:08:06.551Z,82.27
2018-02-12T14:10:32.310Z,86.22
2018-02-12T14:12:58.056Z,89.79
2018-02-12T14:15:23.875Z,90.91
2018-02-12T14:17:49.630Z,92.12
2018-02-12T14:20:15.389Z,93.08
2018-02-12T14:22:41.159Z,93.73
2018-02-12T14:25:06.907Z,94.37
2018-02-12T14:27:32.674Z,94.93
2018-02-12T14:29:58.430Z,94.85
2018-02-12T14:32:24.205Z,94.85
2018-02-12T14:34:49.958Z,94.38
2018-02-12T14:37:15.725Z,94.16
2018-02-12T14:39:41.475Z,93.97
2018-02-12T14:42:07.246Z,94.04
2018-02-12T14:44:33.020Z,93.44
2018-02-12T14:46:58.774Z,93.62
2018-02-12T14:49:24.519Z,93.24
2018-02-12T14:51:50.286Z,92.67
2018-02-12T14:54:16.055Z,92.16
2018-02-12T14:56:41.830Z,91.53
2018-02-12T14:59:07.599Z,91.28
2018-02-12T15:01:33.378Z,91.66
2018-02-12T15:03:59.139Z,91.45
2018-02-12T15:06:24.911Z,90.97
2018-02-12T15:08:50.667Z,91.41
2018-02-12T15:11:16.443Z,91.27
2018-02-12T15:13:42.267Z,92.05
2018-02-12T15:16:07.986Z,92.28
2018-02-12T15:18:33.746Z,92.24
2018-02-12T15:20:59.498Z,92.39
2018-02-12T15:23:25.274Z,92.48
2018-02-12T15:25:51.030Z,92.58
2018-02-12T15:28:16.802Z,92.99
2018-02-12T15:30:42.558Z,93.60
2018-02-12T15:33:08.328Z,93.48
2018-02-12T15:35:34.094Z,93.68
2018-02-12T15:38:00.638Z,93.65
2018-02-12T15:40:26.427Z,93.50
2018-02-12T15:42:52.191Z,93.48
2018-02-12T15:45:17.939Z,93.99
2018-02-12T15:47:43.711Z,93.82
2018-02-12T15:50:09.466Z,93.38
2018-02-12T15:52:35.251Z,93.58
2018-02-12T15:55:01.010Z,94.17
2018-02-12T15:57:26.759Z,94.32
2018-02-12T15:59:52.525Z,94.69
2018-02-12T16:02:18.274Z,94.76
2018-02-12T16:04:44.038Z,94.74
2018-02-12T16:07:09.789Z,94.85
2018-02-12T16:09:35.533Z,94.88
2018-02-12T16:12:01.286Z,94.73
2018-02-12T16:14:27.060Z,94.87
2018-02-12T16:16:52.832Z,94.74
2018-02-12T16:19:18.608Z,94.64
2018-02-12T16:21:44.367Z,94.48
2018-02-12T16:24:10.136Z,94.38
2018-02-12T16:26:35.888Z,94.60
2018-02-12T16:29:01.643Z,94.20
2018-02-12T16:31:27.390Z,94.12
2018-02-12T16:33:53.153Z,94.48
2018-02-12T16:36:18.900Z,94.47
2018-02-12T16:38:44.676Z,94.23
2018-02-12T16:41:10.431Z,94.17
2018-02-12T16:43:36.238Z,94.40
2018-02-12T16:46:02.059Z,94.03
2018-02-12T16:48:27.816Z,94.38
2018-02-12T16:50:53.594Z,94.85
2018-02-12T16:53:19.357Z,95.07
2018-02-12T16:55:45.119Z,95.04
2018-02-12T16:58:10.884Z,94.94
2018-02-12T17:00:36.658Z,95.29
2018-02-12T17:03:02.403Z,94.92
2018-02-12T17:05:28.170Z,94.98
2018-02-12T17:07:53.920Z,94.62
2018-02-12T17:10:19.691Z,94.64
2018-02-12T17:12:45.438Z,94.28
2018-02-12T17:15:11.203Z,94.23
2018-02-12T17:17:36.962Z,94.32
2018-02-12T17:20:02.725Z,94.09
2018-02-12T17:22:28.470Z,93.90
2018-02-12T17:24:54.278Z,94.06
2018-02-12T17:27:20.048Z,94.15
2018-02-12T17:29:45.824Z,94.39
2018-02-12T17:32:11.578Z,94.73
2018-02-12T17:34:37.351Z,94.60
2018-02-12T17:37:03.108Z,94.48
2018-02-12T17:39:28.894Z,94.72
2018-02-12T17:41:54.662Z,94.48
2018-02-12T17:44:20.419Z,94.39
2018-02-12T17:46:46.198Z,94.43
2018-02-12T17:49:11.964Z,94.45
2018-02-12T17:51:37.727Z,94.88
2018-02-12T17:54:03.498Z,94.69
2018-02-12T17:56:29.289Z,94.55
2018-02-12T17:58:55.083Z,94.45
2018-02-12T18:01:20.865Z,94.39
2018-02-12T18:03:46.615Z,94.16
2018-02-12T18:06:12.387Z,94.08
2018-02-12T18:08:38.152Z,94.09
2018-02-12T18:11:03.935Z,93.76
2018-02-12T18:13:29.677Z,93.80
2018-02-12T18:15:55.435Z,93.77
2018-02-12T18:18:21.202Z,93.75
2018-02-12T18:20:47.027Z,93.95
2018-02-12T18:23:12.742Z,93.88
2018-02-12T18:25:38.502Z,94.43
2018-02-12T18:28:04.278Z,94.48
2018-02-12T18:30:30.038Z,94.15
2018-02-12T18:32:55.808Z,93.94
2018-02-12T18:35:21.571Z,93.91
2018-02-12T18:37:47.353Z,93.81
2018-02-12T18:40:13.112Z,93.87
2018-02-12T18:42:38.873Z,94.01
2018-02-12T18:45:04.650Z,94.13
2018-02-12T18:47:30.425Z,94.03
2018-02-12T18:49:56.182Z,94.48
2018-02-12T18:52:21.970Z,94.46
2018-02-12T18:54:47.739Z,94.48
2018-02-12T18:57:13.502Z,94.57
2018-02-12T18:59:39.266Z,94.65
2018-02-12T19:02:05.062Z,94.63
2018-02-12T19:04:30.806Z,94.91
2018-02-12T19:06:56.568Z,95.04
2018-02-12T19:09:22.330Z,95.45
2018-02-12T19:11:48.082Z,95.44
2018-02-12T19:14:13.835Z,95.61
2018-02-12T19:16:39.582Z,95.68
2018-02-12T19:19:05.338Z,95.80
2018-02-12T19:21:31.106Z,95.96
2018-02-12T19:23:56.870Z,96.01
2018-02-12T19:26:22.636Z,95.94
2018-02-12T19:28:48.395Z,96.08
2018-02-12T19:31:14.172Z,96.35
2018-02-12T19:33:39.934Z,96.12
2018-02-12T19:36:05.701Z,96.06
2018-02-12T19:38:31.470Z,96.05
2018-02-12T19:40:57.244Z,96.03
2018-02-12T19:43:23.006Z,95.92
2018-02-12T19:45:48.753Z,95.82
2018-02-12T19:48:14.524Z,95.87
2018-02-12T19:50:40.275Z,96.01
2018-02-12T19:53:06.058Z,96.07
2018-02-12T19:55:31.803Z,96.09
2018-02-12T19:57:57.548Z,96.10
2018-02-12T20:00:23.316Z,96.13
2018-02-12T20:02:49.087Z,96.24
2018-02-12T20:05:14.882Z,96.32
2018-02-12T20:07:40.627Z,96.32
2018-02-12T20:10:06.403Z,96.43
2018-02-12T20:12:32.159Z,96.31
2018-02-12T20:14:57.930Z,96.34
2018-02-12T20:17:23.678Z,96.39
2018-02-12T20:19:49.439Z,96.38
2018-02-12T20:22:15.205Z,96.34
2018-02-12T20:24:40.971Z,96.36
2018-02-12T20:27:06.770Z,96.46
2018-02-12T20:29:32.527Z,96.46
2018-02-12T20:31:58.290Z,96.53
2018-02-12T20:34:24.055Z,96.65
2018-02-12T20:36:49.815Z,96.68
2018-02-12T20:39:15.454Z,96.75
2018-02-12T20:41:41.269Z,96.75
2018-02-12T20:44:07.007Z,96.71
2018-02-12T20:46:32.784Z,96.79
2018-02-12T20:48:58.538Z,96.82
2018-02-12T20:51:24.283Z,96.68
2018-02-12T20:53:50.061Z,96.68
2018-02-12T20:56:15.815Z,96.83
2018-02-12T20:58:41.574Z,96.90
2018-02-12T21:01:07.345Z,96.90
2018-02-12T21:03:33.114Z,96.86
2018-02-12T21:05:58.870Z,96.88
2018-02-12T21:08:24.622Z,96.87
2018-02-12T21:10:50.382Z,97.13
2018-02-12T21:13:16.138Z,97.08
2018-02-12T21:15:42.588Z,97.17
2018-02-12T21:18:08.626Z,97.17
2018-02-12T21:20:34.382Z,97.17
2018-02-12T21:23:00.158Z,97.21
2018-02-12T21:25:25.902Z,97.30
2018-02-12T21:27:51.673Z,97.40
2018-02-12T21:30:17.433Z,97.42
2018-02-12T21:32:43.246Z,97.59
2018-02-12T21:35:09.068Z,97.51
2018-02-12T21:37:34.795Z,97.39
2018-02-12T21:40:00.561Z,97.43
2018-02-12T21:42:26.334Z,97.56
2018-02-12T21:44:52.094Z,97.45
2018-02-12T21:47:17.885Z,97.42
2018-02-12T21:49:43.630Z,97.35
2018-02-12T21:52:09.390Z,97.44
2018-02-12T21:54:35.142Z,97.41
2018-02-12T21:57:00.896Z,97.41
2018-02-12T21:59:26.650Z,97.47
2018-02-12T22:01:52.407Z,97.44
2018-02-12T22:04:18.166Z,97.35
2018-02-12T22:06:43.935Z,97.31
2018-02-12T22:09:09.704Z,97.40
2018-02-12T22:11:35.446Z,97.33
2018-02-12T22:14:01.211Z,97.33
2018-02-12T22:16:26.963Z,97.14
2018-02-12T22:18:52.730Z,97.08
2018-02-12T22:21:18.472Z,96.91
2018-02-12T22:23:44.243Z,96.77
2018-02-12T22:26:09.986Z,96.91
2018-02-12T22:28:35.755Z,96.74
2018-02-12T22:31:01.552Z,96.74
2018-02-12T22:33:27.327Z,96.71
2018-02-12T22:35:53.073Z,96.67
2018-02-12T22:38:18.847Z,96.64
2018-02-12T22:40:44.612Z,96.50
2018-02-12T22:43:10.367Z,96.34
2018-02-12T22:45:36.123Z,96.30
2018-02-12T22:48:01.890Z,96.40
2018-02-12T22:50:27.799Z,96.35
2018-02-12T22:52:53.556Z,96.13
2018-02-12T22:55:19.337Z,96.34
2018-02-12T22:57:45.096Z,96.43
2018-02-12T23:00:10.862Z,96.33
2018-02-12T23:02:36.614Z,96.47
2018-02-12T23:05:02.408Z,96.57
2018-02-12T23:07:28.159Z,96.61
2018-02-12T23:09:53.902Z,96.71
2018-02-12T23:12:19.658Z,96.79
2018-02-12T23:14:45.415Z,96.65
2018-02-12T23:17:12.254Z,96.78
2018-02-12T23:19:38.003Z,96.80
2018-02-12T23:22:03.764Z,96.69
2018-02-12T23:24:29.510Z,96.69
2018-02-12T23:26:55.287Z,96.49
2018-02-12T23:29:21.044Z,96.74
2018-02-12T23:31:46.810Z,96.76
2018-02-12T23:34:12.570Z,96.73
2018-02-12T23:36:38.336Z,96.77
2018-02-12T23:39:04.083Z,96.68
2018-02-12T23:41:29.859Z,96.85
2018-02-12T23:43:55.613Z,96.88
2018-02-12T23:46:21.399Z,96.62
2018-02-12T23:48:47.139Z,96.47
2018-02-12T23:51:12.920Z,96.42
2018-02-12T23:53:38.680Z,96.37
2018-02-12T23:56:04.434Z,96.44
2018-02-12T23:58:30.194Z,96.30
